createdAt,value
2019-03-03T00:00:03.079Z,16.03
2019-03-03T00:01:02.739Z,16.72
2019-03-03T00:02:02.805Z,15.54
2019-03-03T00:03:02.855Z,16.31
2019-03-03T00:04:03.023Z,16.31
2019-03-03T00:05:02.943Z,15.86
2019-03-03T00:06:02.773Z,16.62
2019-03-03T00:07:03.677Z,16.28
2019-03-03T00:08:03.657Z,16.28
2019-03-03T00:09:03.634Z,16.56
2019-03-03T00:10:03.697Z,15.89
2019-03-03T00:11:03.681Z,15.91
2019-03-03T00:12:03.443Z,15.91
2019-03-03T00:13:02.965Z,16.08
2019-03-03T00:14:04.358Z,16.51
2019-03-03T00:15:03.145Z,16.51
2019-03-03T00:16:02.739Z,16.71
2019-03-03T00:17:02.935Z,16.69
2019-03-03T00:18:03.602Z,16.21
2019-03-03T00:19:03.525Z,16.97
2019-03-03T00:20:03.555Z,16.97
2019-03-03T00:21:02.623Z,17.26
2019-03-03T00:22:03.567Z,15.96
2019-03-03T00:23:03.449Z,17.13
2019-03-03T00:24:03.746Z,17.13
2019-03-03T00:25:03.437Z,16.67
2019-03-03T00:26:03.633Z,16.92
2019-03-03T00:27:03.484Z,15.75
2019-03-03T00:28:03.636Z,15.75
2019-03-03T00:29:03.524Z,17.09
2019-03-03T00:30:03.592Z,16.53
2019-03-03T00:31:03.606Z,17.06
2019-03-03T00:32:03.352Z,17.06
2019-03-03T00:33:03.427Z,17.66
2019-03-03T00:34:03.174Z,17.14
2019-03-03T00:35:03.024Z,17.14
2019-03-03T00:36:03.081Z,17.06
2019-03-03T00:37:03.386Z,16.62
2019-03-03T00:38:03.340Z,16.89
2019-03-03T00:39:03.305Z,16.89
2019-03-03T00:40:03.456Z,16.68
2019-03-03T00:41:02.925Z,16.39
2019-03-03T00:42:03.327Z,15.95
2019-03-03T00:43:03.300Z,16.28
2019-03-03T00:44:03.669Z,16.28
2019-03-03T00:45:03.519Z,17.42
2019-03-03T00:46:03.368Z,16.21
2019-03-03T00:47:03.571Z,16.96
2019-03-03T00:48:03.602Z,16.96
2019-03-03T00:49:03.422Z,17.51
2019-03-03T00:50:03.146Z,16.54
2019-03-03T00:51:03.403Z,16.54
2019-03-03T00:52:03.351Z,16.69
2019-03-03T00:53:03.317Z,17.18
2019-03-03T00:54:03.314Z,16.44
2019-03-03T00:55:03.366Z,16.44
2019-03-03T00:56:03.432Z,16.85
2019-03-03T00:57:03.245Z,17.11
2019-03-03T00:58:03.658Z,16.91
2019-03-03T00:59:03.337Z,16.91
2019-03-03T01:00:03.180Z,16.98
2019-03-03T01:01:03.305Z,16.81
2019-03-03T01:02:03.126Z,16.71
2019-03-03T01:03:03.049Z,16.71
2019-03-03T01:04:03.213Z,17.21
2019-03-03T01:05:03.410Z,17.71
2019-03-03T01:06:03.194Z,16.75
2019-03-03T01:07:03.094Z,16.75
2019-03-03T01:08:03.208Z,16.82
2019-03-03T01:09:03.002Z,16.88
2019-03-03T01:10:03.176Z,17.19
2019-03-03T01:11:02.885Z,17.19
2019-03-03T01:12:02.920Z,16.82
2019-03-03T01:13:02.963Z,16.47
2019-03-03T01:14:02.454Z,16.98
2019-03-03T01:15:02.911Z,16.98
2019-03-03T01:16:02.980Z,17.34
2019-03-03T01:17:03.449Z,16.34
2019-03-03T01:18:02.876Z,16.41
2019-03-03T01:19:02.801Z,16.41
2019-03-03T01:20:02.867Z,16.75
2019-03-03T01:21:03.717Z,17.31
2019-03-03T01:22:03.768Z,16.43
2019-03-03T01:23:03.553Z,16.43
2019-03-03T01:24:03.286Z,17.5
2019-03-03T01:25:03.596Z,16.75
2019-03-03T01:26:03.395Z,16.31
2019-03-03T01:27:02.758Z,16.31
2019-03-03T01:28:03.527Z,16.18
2019-03-03T01:29:03.429Z,15.86
2019-03-03T01:30:03.528Z,15.45
2019-03-03T01:31:03.142Z,15.45
2019-03-03T01:32:03.510Z,15.89
2019-03-03T01:33:03.415Z,15.63
2019-03-03T01:34:03.393Z,14.6
2019-03-03T01:35:03.626Z,14.6
2019-03-03T01:36:03.306Z,16.12
2019-03-03T01:37:03.296Z,15.16
2019-03-03T01:38:03.197Z,15.26
2019-03-03T01:39:03.209Z,15.26
2019-03-03T01:40:03.355Z,15.06
2019-03-03T01:41:03.270Z,15.55
2019-03-03T01:42:03.302Z,15.51
2019-03-03T01:43:03.169Z,15.51
2019-03-03T01:44:03.009Z,15.58
2019-03-03T01:45:03.042Z,14.82
2019-03-03T01:46:03.159Z,15.44
2019-03-03T01:47:03.277Z,15.44
2019-03-03T01:48:03.020Z,14.72
2019-03-03T01:49:03.016Z,14.78
2019-03-03T01:50:02.983Z,14.81
2019-03-03T01:51:02.985Z,14.81
2019-03-03T01:52:02.564Z,15.34
2019-03-03T01:53:02.911Z,14.36
2019-03-03T01:54:02.426Z,14.36
2019-03-03T01:55:02.933Z,15.42
2019-03-03T01:56:02.793Z,14.51
2019-03-03T01:57:02.948Z,15.51
2019-03-03T01:58:03.318Z,15.51
2019-03-03T01:59:02.894Z,14.23
2019-03-03T02:00:02.746Z,14.53
2019-03-03T02:01:03.432Z,13.95
2019-03-03T02:02:03.355Z,15.12
2019-03-03T02:03:03.391Z,15.12
2019-03-03T02:04:03.603Z,14.56
2019-03-03T02:05:03.642Z,14.24
2019-03-03T02:06:03.589Z,14.64
2019-03-03T02:07:03.693Z,14.64
2019-03-03T02:08:03.575Z,14.05
2019-03-03T02:09:03.441Z,13.69
2019-03-03T02:10:02.773Z,13.69
2019-03-03T02:11:03.470Z,13.78
2019-03-03T02:12:02.651Z,13.66
2019-03-03T02:13:03.615Z,14.21
2019-03-03T02:14:03.364Z,14.21
2019-03-03T02:15:03.743Z,14.48
2019-03-03T02:16:02.211Z,13.32
2019-03-03T02:17:03.708Z,13.34
2019-03-03T02:18:03.548Z,13.34
2019-03-03T02:19:03.455Z,12.63
2019-03-03T02:20:03.290Z,13.06
2019-03-03T02:21:03.522Z,13.46
2019-03-03T02:22:03.536Z,13.46
2019-03-03T02:23:03.216Z,13.49
2019-03-03T02:24:03.259Z,13.29
2019-03-03T02:25:03.304Z,13.11
2019-03-03T02:26:03.137Z,13.11
2019-03-03T02:27:03.198Z,12.04
2019-03-03T02:28:03.291Z,13.25
2019-03-03T02:29:03.244Z,13.08
2019-03-03T02:30:03.373Z,13.08
2019-03-03T02:31:02.917Z,13.84
2019-03-03T02:32:03.080Z,13.35
2019-03-03T02:33:02.744Z,12.34
2019-03-03T02:34:03.200Z,12.34
2019-03-03T02:35:03.248Z,12.66
2019-03-03T02:36:03.322Z,12.48
2019-03-03T02:37:03.193Z,12.22
2019-03-03T02:38:03.137Z,12.22
2019-03-03T02:39:03.193Z,12.28
2019-03-03T02:40:02.059Z,11.34
2019-03-03T02:41:03.204Z,12.26
2019-03-03T02:42:03.395Z,12.26
2019-03-03T02:43:03.640Z,11.36
2019-03-03T02:44:02.756Z,11.52
2019-03-03T02:45:03.194Z,11.68
2019-03-03T02:46:02.923Z,11.68
2019-03-03T02:47:03.142Z,11.81
2019-03-03T02:48:02.766Z,11.47
2019-03-03T02:49:02.923Z,11.13
2019-03-03T02:50:02.932Z,11.13
2019-03-03T02:51:02.868Z,10.9
2019-03-03T02:52:02.883Z,11.35
2019-03-03T02:53:03.752Z,10.88
2019-03-03T02:54:02.804Z,10.88
2019-03-03T02:55:02.891Z,10.72
2019-03-03T02:56:03.374Z,10.72
2019-03-03T02:57:02.412Z,10.06
2019-03-03T02:58:02.861Z,10.06
2019-03-03T02:59:02.888Z,11.06
2019-03-03T03:00:03.187Z,10.61
2019-03-03T03:01:02.788Z,10.85
2019-03-03T03:02:02.964Z,10.85
2019-03-03T03:03:03.131Z,10.99
2019-03-03T03:04:03.473Z,11.49
2019-03-03T03:05:02.945Z,9.71
2019-03-03T03:06:02.834Z,9.71
2019-03-03T03:07:02.812Z,9.64
2019-03-03T03:08:02.945Z,9.74
2019-03-03T03:09:02.813Z,9.88
2019-03-03T03:10:02.915Z,9.88
2019-03-03T03:11:03.481Z,10.04
2019-03-03T03:12:03.698Z,9.41
2019-03-03T03:13:03.607Z,9.6
2019-03-03T03:14:03.621Z,9.6
2019-03-03T03:15:03.473Z,10.29
2019-03-03T03:16:03.359Z,10.19
2019-03-03T03:17:03.450Z,10.14
2019-03-03T03:18:03.538Z,10.14
2019-03-03T03:19:03.488Z,10.44
2019-03-03T03:20:03.391Z,10.28
2019-03-03T03:21:03.325Z,10.42
2019-03-03T03:22:03.402Z,10.42
2019-03-03T03:23:03.529Z,9.69
2019-03-03T03:24:03.278Z,9.9
2019-03-03T03:25:03.433Z,10.31
2019-03-03T03:26:03.357Z,10.31
2019-03-03T03:27:03.196Z,10.11
2019-03-03T03:28:03.078Z,10.01
2019-03-03T03:29:03.398Z,10.61
2019-03-03T03:30:03.326Z,10.61
2019-03-03T03:31:03.257Z,10.46
2019-03-03T03:32:03.216Z,10.22
2019-03-03T03:33:02.843Z,10.25
2019-03-03T03:34:03.311Z,10.25
2019-03-03T03:35:03.102Z,9.94
2019-03-03T03:36:02.961Z,9.96
2019-03-03T03:37:02.882Z,9.89
2019-03-03T03:38:03.218Z,9.89
2019-03-03T03:39:01.754Z,9.94
2019-03-03T03:40:03.085Z,9.55
2019-03-03T03:41:03.078Z,9.55
2019-03-03T03:42:03.027Z,9.72
2019-03-03T03:43:02.639Z,9.68
2019-03-03T03:44:02.960Z,9.48
2019-03-03T03:45:02.928Z,9.48
2019-03-03T03:46:02.968Z,10.15
2019-03-03T03:47:02.958Z,10.14
2019-03-03T03:48:03.626Z,9.19
2019-03-03T03:49:03.737Z,9.57
2019-03-03T03:50:02.756Z,9.57
2019-03-03T03:51:02.774Z,9.33
2019-03-03T03:52:03.547Z,9.75
2019-03-03T03:53:03.618Z,10.13
2019-03-03T03:54:03.535Z,10.13
2019-03-03T03:55:02.788Z,9.84
2019-03-03T03:56:03.654Z,9.79
2019-03-03T03:57:02.584Z,9.79
2019-03-03T03:58:03.698Z,9.01
2019-03-03T03:59:03.671Z,9.01
2019-03-03T04:00:03.613Z,9.28
2019-03-03T04:01:03.503Z,9.28
2019-03-03T04:02:03.433Z,9.75
2019-03-03T04:03:03.346Z,9.7
2019-03-03T04:04:03.651Z,9.75
2019-03-03T04:05:03.629Z,9.75
2019-03-03T04:06:03.600Z,10.23
2019-03-03T04:07:03.192Z,9.51
2019-03-03T04:08:03.392Z,9.05
2019-03-03T04:09:03.485Z,9.05
2019-03-03T04:10:03.258Z,9.61
2019-03-03T04:11:03.509Z,9.71
2019-03-03T04:12:03.308Z,9.05
2019-03-03T04:13:03.320Z,9.05
2019-03-03T04:14:03.359Z,8.99
2019-03-03T04:15:03.288Z,9.4
2019-03-03T04:16:03.299Z,9.84
2019-03-03T04:17:03.283Z,9.84
2019-03-03T04:18:03.069Z,9.75
2019-03-03T04:19:03.316Z,9.69
2019-03-03T04:20:03.104Z,9.04
2019-03-03T04:21:03.334Z,9.04
2019-03-03T04:22:02.729Z,8.72
2019-03-03T04:23:03.448Z,8.95
2019-03-03T04:24:03.197Z,9.18
2019-03-03T04:25:03.197Z,9.18
2019-03-03T04:26:03.119Z,9.49
2019-03-03T04:27:02.886Z,9.22
2019-03-03T04:28:03.203Z,9.16
2019-03-03T04:29:02.808Z,9.16
2019-03-03T04:30:03.472Z,9.11
2019-03-03T04:31:02.710Z,9.39
2019-03-03T04:32:03.115Z,9.71
2019-03-03T04:33:03.579Z,9.71
2019-03-03T04:34:02.857Z,9.12
2019-03-03T04:35:02.801Z,8.97
2019-03-03T04:36:03.095Z,9.48
2019-03-03T04:37:02.919Z,9.48
2019-03-03T04:38:02.932Z,9.09
2019-03-03T04:39:03.012Z,9.44
2019-03-03T04:40:02.960Z,9.15
2019-03-03T04:41:02.865Z,9.15
2019-03-03T04:42:02.637Z,9.6
2019-03-03T04:43:02.512Z,9.67
2019-03-03T04:44:03.627Z,9.13
2019-03-03T04:45:02.640Z,9.13
2019-03-03T04:46:03.534Z,9.78
2019-03-03T04:47:03.044Z,9.31
2019-03-03T04:48:03.616Z,9.51
2019-03-03T04:49:02.679Z,9.51
2019-03-03T04:50:03.802Z,9.5
2019-03-03T04:51:03.284Z,9.87
2019-03-03T04:52:03.541Z,9.86
2019-03-03T04:53:03.807Z,9.86
2019-03-03T04:54:03.511Z,10.06
2019-03-03T04:55:03.348Z,9.33
2019-03-03T04:56:03.592Z,9.48
2019-03-03T04:57:03.381Z,9.48
2019-03-03T04:58:02.945Z,10.01
2019-03-03T04:59:03.063Z,10.35
2019-03-03T05:00:03.318Z,9.66
2019-03-03T05:01:03.141Z,9.66
2019-03-03T05:02:02.618Z,9.67
2019-03-03T05:03:03.119Z,11
2019-03-03T05:04:03.168Z,11
2019-03-03T05:05:03.261Z,10.09
2019-03-03T05:06:02.871Z,10.28
2019-03-03T05:07:03.169Z,9.89
2019-03-03T05:08:03.013Z,9.84
2019-03-03T05:09:03.161Z,9.84
2019-03-03T05:10:03.158Z,10.08
2019-03-03T05:11:03.276Z,9.63
2019-03-03T05:12:02.991Z,9.62
2019-03-03T05:13:02.881Z,9.62
2019-03-03T05:14:02.805Z,9.8
2019-03-03T05:15:03.041Z,9.64
2019-03-03T05:16:02.853Z,8.89
2019-03-03T05:17:02.722Z,8.89
2019-03-03T05:18:02.610Z,9.91
2019-03-03T05:19:03.690Z,8.86
2019-03-03T05:20:02.777Z,8.86
2019-03-03T05:21:03.674Z,9.14
2019-03-03T05:22:03.558Z,9.4
2019-03-03T05:23:03.547Z,9.53
2019-03-03T05:24:02.859Z,9.53
2019-03-03T05:25:03.585Z,9.14
2019-03-03T05:26:03.639Z,9.4
2019-03-03T05:27:03.422Z,9.65
2019-03-03T05:28:03.361Z,9.36
2019-03-03T05:29:03.416Z,9.36
2019-03-03T05:30:03.889Z,9.38
2019-03-03T05:31:03.507Z,9.15
2019-03-03T05:32:03.334Z,8.46
2019-03-03T05:33:03.323Z,8.46
2019-03-03T05:34:03.306Z,8.94
2019-03-03T05:35:03.677Z,9.09
2019-03-03T05:36:03.280Z,9.09
2019-03-03T05:37:03.257Z,8.86
2019-03-03T05:38:03.501Z,9.36
2019-03-03T05:39:03.412Z,8.86
2019-03-03T05:40:03.490Z,8.86
2019-03-03T05:41:03.287Z,8.96
2019-03-03T05:42:03.383Z,8.66
2019-03-03T05:43:03.210Z,9.29
2019-03-03T05:44:03.258Z,9.29
2019-03-03T05:45:03.251Z,8.51
2019-03-03T05:46:03.262Z,8.81
2019-03-03T05:47:03.368Z,9.21
2019-03-03T05:48:03.359Z,9.21
2019-03-03T05:49:03.062Z,8.46
2019-03-03T05:50:03.253Z,8.87
2019-03-03T05:51:02.971Z,9.11
2019-03-03T05:52:03.734Z,9.11
2019-03-03T05:53:02.918Z,8.16
2019-03-03T05:54:03.044Z,8.59
2019-03-03T05:55:03.098Z,8.61
2019-03-03T05:56:02.828Z,8.61
2019-03-03T05:57:02.923Z,9.08
2019-03-03T05:58:03.041Z,8.61
2019-03-03T05:59:03.218Z,8.61
2019-03-03T06:00:02.953Z,8.61
2019-03-03T06:01:02.950Z,7.74
2019-03-03T06:02:02.898Z,8.04
2019-03-03T06:03:02.442Z,8.32
2019-03-03T06:04:03.097Z,8.32
2019-03-03T06:05:02.823Z,8.35
2019-03-03T06:06:03.001Z,7.75
2019-03-03T06:07:03.554Z,8.46
2019-03-03T06:08:02.756Z,8.46
2019-03-03T06:09:03.577Z,8.27
2019-03-03T06:10:03.690Z,8.21
2019-03-03T06:11:03.506Z,7.98
2019-03-03T06:12:03.541Z,7.98
2019-03-03T06:13:03.696Z,8.24
2019-03-03T06:14:03.570Z,8.29
2019-03-03T06:15:03.479Z,8.07
2019-03-03T06:16:03.690Z,8.07
2019-03-03T06:17:03.463Z,7.54
2019-03-03T06:18:03.390Z,7.65
2019-03-03T06:19:03.773Z,7.78
2019-03-03T06:20:03.350Z,7.78
2019-03-03T06:21:03.208Z,7.96
2019-03-03T06:22:03.507Z,7.14
2019-03-03T06:23:03.377Z,7.74
2019-03-03T06:24:03.183Z,7.74
2019-03-03T06:25:03.517Z,7.59
2019-03-03T06:26:03.323Z,7.46
2019-03-03T06:27:03.374Z,7.3
2019-03-03T06:28:03.044Z,7.3
2019-03-03T06:29:03.218Z,7.26
2019-03-03T06:30:05.615Z,7.64
2019-03-03T06:31:03.322Z,7.31
2019-03-03T06:32:03.111Z,7.31
2019-03-03T06:33:03.245Z,6.76
2019-03-03T06:34:03.006Z,7.08
2019-03-03T06:35:03.219Z,7.18
2019-03-03T06:36:03.223Z,7.18
2019-03-03T06:37:03.251Z,6.53
2019-03-03T06:38:03.256Z,7
2019-03-03T06:39:02.753Z,6.22
2019-03-03T06:40:03.237Z,6.22
2019-03-03T06:41:03.101Z,6.25
2019-03-03T06:42:03.288Z,6.18
2019-03-03T06:43:03.247Z,6.18
2019-03-03T06:44:03.299Z,6.21
2019-03-03T06:45:02.983Z,5.92
2019-03-03T06:46:03.073Z,6.19
2019-03-03T06:47:03.039Z,6.01
2019-03-03T06:48:02.927Z,6.01
2019-03-03T06:49:02.980Z,6.03
2019-03-03T06:50:03.122Z,5.77
2019-03-03T06:51:03.236Z,5.63
2019-03-03T06:52:03.723Z,5.63
2019-03-03T06:53:02.830Z,6.08
2019-03-03T06:54:03.161Z,6.01
2019-03-03T06:55:02.861Z,5.62
2019-03-03T06:56:02.770Z,5.62
2019-03-03T06:57:02.996Z,5.61
2019-03-03T06:58:02.505Z,5.36
2019-03-03T06:59:03.574Z,5.75
2019-03-03T07:00:02.802Z,5.75
2019-03-03T07:01:03.421Z,5.28
2019-03-03T07:02:02.618Z,5.34
2019-03-03T07:03:02.958Z,5.34
2019-03-03T07:04:02.955Z,6.39
2019-03-03T07:05:02.985Z,5.66
2019-03-03T07:06:02.886Z,6.41
2019-03-03T07:07:04.262Z,6.24
2019-03-03T07:08:02.945Z,6.24
2019-03-03T07:09:03.514Z,5.68
2019-03-03T07:10:03.634Z,5.59
2019-03-03T07:11:03.623Z,5.51
2019-03-03T07:12:03.546Z,5.51
2019-03-03T07:13:03.767Z,5.42
2019-03-03T07:14:03.598Z,4.81
2019-03-03T07:15:03.590Z,4.81
2019-03-03T07:16:03.310Z,5.03
2019-03-03T07:17:03.665Z,5.1
2019-03-03T07:18:03.312Z,4.48
2019-03-03T07:19:03.439Z,4.84
2019-03-03T07:20:03.433Z,4.84
2019-03-03T07:21:03.335Z,4.35
2019-03-03T07:22:03.449Z,4.41
2019-03-03T07:23:03.362Z,4.44
2019-03-03T07:24:03.336Z,4.44
2019-03-03T07:25:03.455Z,4.39
2019-03-03T07:26:02.995Z,4.4
2019-03-03T07:27:03.177Z,4.41
2019-03-03T07:28:03.326Z,4.41
2019-03-03T07:29:03.081Z,4.24
2019-03-03T07:30:03.276Z,4.23
2019-03-03T07:31:03.005Z,4.23
2019-03-03T07:32:03.304Z,4.44
2019-03-03T07:33:03.157Z,4.39
2019-03-03T07:34:03.249Z,4.06
2019-03-03T07:35:03.167Z,4.06
2019-03-03T07:36:03.173Z,3.7
2019-03-03T07:37:03.133Z,4.14
2019-03-03T07:38:02.909Z,4.07
2019-03-03T07:39:02.952Z,4.07
2019-03-03T07:40:02.693Z,3.95
2019-03-03T07:41:03.060Z,4.13
2019-03-03T07:42:02.888Z,3.88
2019-03-03T07:43:02.952Z,3.84
2019-03-03T07:44:02.949Z,3.84
2019-03-03T07:45:04.708Z,3.68
2019-03-03T07:46:03.623Z,3.73
2019-03-03T07:47:02.844Z,3.73
2019-03-03T07:48:03.720Z,4.02
2019-03-03T07:49:04.275Z,3.9
2019-03-03T07:50:03.361Z,3.76
2019-03-03T07:51:02.958Z,3.76
2019-03-03T07:52:02.933Z,3.27
2019-03-03T07:53:03.689Z,3.68
2019-03-03T07:54:03.791Z,3.48
2019-03-03T07:55:03.683Z,3.48
2019-03-03T07:56:03.703Z,3.64
2019-03-03T07:57:02.561Z,3.58
2019-03-03T07:58:03.611Z,3.48
2019-03-03T07:59:03.388Z,3.48
2019-03-03T08:00:03.644Z,3.52
2019-03-03T08:01:03.386Z,3.64
2019-03-03T08:02:02.736Z,3.16
2019-03-03T08:03:03.412Z,3.16
2019-03-03T08:04:03.794Z,3.44
2019-03-03T08:05:02.875Z,3.64
2019-03-03T08:06:03.484Z,3.68
2019-03-03T08:07:03.425Z,3.68
2019-03-03T08:08:04.010Z,3.13
2019-03-03T08:09:03.399Z,3.21
2019-03-03T08:10:03.534Z,3.06
2019-03-03T08:11:03.685Z,3.06
2019-03-03T08:12:03.715Z,3.15
2019-03-03T08:13:09.656Z,3.35
2019-03-03T08:14:03.480Z,3.44
2019-03-03T08:15:03.258Z,3.44
2019-03-03T08:16:02.850Z,3.29
2019-03-03T08:17:03.374Z,3.39
2019-03-03T08:18:03.352Z,3.21
2019-03-03T08:19:03.233Z,3.21
2019-03-03T08:20:03.491Z,2.93
2019-03-03T08:21:02.025Z,3.38
2019-03-03T08:22:03.362Z,3.19
2019-03-03T08:23:03.219Z,3.19
2019-03-03T08:24:03.240Z,2.88
2019-03-03T08:25:03.119Z,3.11
2019-03-03T08:26:03.187Z,2.91
2019-03-03T08:27:03.158Z,2.91
2019-03-03T08:28:02.948Z,3.01
2019-03-03T08:29:03.004Z,3.01
2019-03-03T08:30:02.939Z,3.19
2019-03-03T08:31:03.146Z,3.19
2019-03-03T08:32:02.812Z,3.19
2019-03-03T08:33:03.076Z,2.92
2019-03-03T08:34:02.769Z,2.86
2019-03-03T08:35:02.899Z,2.86
2019-03-03T08:36:02.641Z,2.96
2019-03-03T08:37:03.000Z,2.89
2019-03-03T08:38:03.748Z,2.79
2019-03-03T08:39:03.614Z,2.79
2019-03-03T08:40:02.800Z,2.74
2019-03-03T08:41:02.713Z,2.66
2019-03-03T08:42:03.754Z,2.97
2019-03-03T08:43:04.349Z,2.97
2019-03-03T08:44:03.579Z,2.68
2019-03-03T08:45:03.603Z,2.85
2019-03-03T08:46:03.537Z,2.67
2019-03-03T08:47:03.505Z,2.67
2019-03-03T08:48:03.529Z,2.64
2019-03-03T08:49:03.409Z,2.84
2019-03-03T08:50:02.872Z,2.62
2019-03-03T08:51:03.767Z,2.62
2019-03-03T08:52:02.937Z,2.62
2019-03-03T08:53:03.516Z,4.09
2019-03-03T08:54:03.298Z,3.22
2019-03-03T08:55:03.524Z,3.22
2019-03-03T08:56:03.382Z,3.07
2019-03-03T08:57:03.318Z,2.84
2019-03-03T08:58:03.276Z,2.84
2019-03-03T08:59:03.431Z,2.84
2019-03-03T09:00:03.420Z,2.85
2019-03-03T09:01:03.393Z,2.73
2019-03-03T09:02:03.358Z,2.73
2019-03-03T09:03:03.290Z,2.31
2019-03-03T09:04:03.344Z,2.98
2019-03-03T09:05:03.275Z,2.59
2019-03-03T09:06:03.146Z,2.64
2019-03-03T09:07:03.239Z,2.64
2019-03-03T09:08:03.243Z,2.75
2019-03-03T09:09:02.910Z,2.65
2019-03-03T09:10:03.213Z,3.14
2019-03-03T09:11:03.369Z,3.14
2019-03-03T09:12:03.068Z,2.95
2019-03-03T09:13:03.012Z,2.75
2019-03-03T09:14:03.099Z,2.75
2019-03-03T09:15:03.533Z,3.81
2019-03-03T09:16:03.621Z,3.29
2019-03-03T09:17:03.295Z,2.41
2019-03-03T09:18:02.901Z,2.41
2019-03-03T09:19:03.429Z,2.58
2019-03-03T09:20:02.501Z,2.63
2019-03-03T09:21:03.750Z,2.55
2019-03-03T09:22:04.887Z,2.55
2019-03-03T09:23:03.627Z,2.88
2019-03-03T09:24:03.438Z,2.51
2019-03-03T09:25:03.613Z,2.79
2019-03-03T09:26:03.604Z,2.79
2019-03-03T09:27:03.468Z,2.74
2019-03-03T09:28:03.024Z,2.52
2019-03-03T09:29:02.645Z,2.85
2019-03-03T09:30:03.610Z,2.85
2019-03-03T09:31:02.780Z,2.37
2019-03-03T09:32:03.598Z,2.52
2019-03-03T09:33:03.509Z,2.4
2019-03-03T09:34:03.260Z,2.4
2019-03-03T09:35:03.614Z,2.7
2019-03-03T09:36:03.409Z,2.65
2019-03-03T09:37:03.236Z,2.64
2019-03-03T09:38:03.400Z,2.64
2019-03-03T09:39:03.195Z,2.78
2019-03-03T09:40:09.842Z,2.43
2019-03-03T09:41:03.176Z,2.76
2019-03-03T09:42:03.571Z,2.76
2019-03-03T09:43:03.333Z,2.38
2019-03-03T09:44:03.302Z,2.65
2019-03-03T09:45:03.112Z,2.09
2019-03-03T09:46:03.335Z,2.09
2019-03-03T09:47:03.258Z,2.4
2019-03-03T09:48:03.253Z,4.75
2019-03-03T09:49:03.242Z,3.56
2019-03-03T09:50:02.961Z,3.56
2019-03-03T09:51:03.076Z,2.32
2019-03-03T09:52:03.005Z,3.11
2019-03-03T09:53:03.028Z,2.62
2019-03-03T09:54:03.144Z,2.62
2019-03-03T09:55:03.377Z,2.79
2019-03-03T09:56:03.146Z,2.34
2019-03-03T09:57:03.111Z,2.81
2019-03-03T09:58:03.679Z,2.81
2019-03-03T09:59:02.914Z,2.06
2019-03-03T10:00:03.184Z,2.33
2019-03-03T10:01:02.950Z,2.2
2019-03-03T10:02:02.997Z,2.2
2019-03-03T10:03:02.922Z,2.12
2019-03-03T10:04:02.930Z,2.34
2019-03-03T10:05:02.861Z,2.2
2019-03-03T10:06:03.084Z,2.2
2019-03-03T10:07:03.714Z,2.01
2019-03-03T10:08:03.682Z,2.31
2019-03-03T10:09:03.734Z,2.54
2019-03-03T10:10:03.785Z,2.54
2019-03-03T10:11:03.467Z,2.66
2019-03-03T10:12:03.604Z,2.11
2019-03-03T10:13:02.769Z,2.81
2019-03-03T10:14:03.725Z,2.81
2019-03-03T10:15:03.564Z,2.21
2019-03-03T10:16:03.710Z,2.13
2019-03-03T10:17:02.710Z,1.87
2019-03-03T10:18:03.301Z,1.87
2019-03-03T10:19:07.529Z,2
2019-03-03T10:20:03.728Z,2.41
2019-03-03T10:21:03.602Z,3.53
2019-03-03T10:22:03.102Z,3.53
2019-03-03T10:23:03.515Z,2.49
2019-03-03T10:24:03.576Z,2.32
2019-03-03T10:25:03.187Z,2.34
2019-03-03T10:26:03.391Z,2.34
2019-03-03T10:27:03.268Z,2.08
2019-03-03T10:28:03.488Z,2.25
2019-03-03T10:29:03.227Z,2.11
2019-03-03T10:30:03.515Z,2.11
2019-03-03T10:31:03.008Z,2.22
2019-03-03T10:32:03.292Z,2.42
2019-03-03T10:33:03.080Z,2.17
2019-03-03T10:34:03.009Z,2.17
2019-03-03T10:35:03.145Z,2.32
2019-03-03T10:36:03.188Z,2.48
2019-03-03T10:37:03.245Z,2.48
2019-03-03T10:38:03.077Z,2.18
2019-03-03T10:39:03.065Z,2.31
2019-03-03T10:40:03.994Z,2.61
2019-03-03T10:41:03.034Z,2.18
2019-03-03T10:42:02.535Z,2.18
2019-03-03T10:43:02.912Z,2.18
2019-03-03T10:44:03.139Z,2.54
2019-03-03T10:45:03.195Z,2.17
2019-03-03T10:46:02.778Z,2.17
2019-03-03T10:47:02.925Z,2.19
2019-03-03T10:48:03.234Z,2.38
2019-03-03T10:49:03.061Z,2.38
2019-03-03T10:50:02.902Z,2.06
2019-03-03T10:51:03.024Z,2.49
2019-03-03T10:52:02.855Z,2.19
2019-03-03T10:53:03.475Z,2.13
2019-03-03T10:54:02.844Z,2.13
2019-03-03T10:55:02.896Z,2.64
2019-03-03T10:56:03.038Z,1.86
2019-03-03T10:57:02.863Z,1.86
2019-03-03T10:58:02.871Z,1.79
2019-03-03T10:59:03.294Z,2.14
2019-03-03T11:00:03.850Z,2.11
2019-03-03T11:01:03.786Z,2.16
2019-03-03T11:02:03.494Z,2.16
2019-03-03T11:03:03.714Z,2.01
2019-03-03T11:04:02.594Z,2.11
2019-03-03T11:05:03.837Z,2.11
2019-03-03T11:06:03.749Z,2.08
2019-03-03T11:07:03.659Z,1.89
2019-03-03T11:08:03.597Z,2.09
2019-03-03T11:09:03.669Z,2.09
2019-03-03T11:10:03.532Z,2.01
2019-03-03T11:11:03.619Z,1.86
2019-03-03T11:12:03.223Z,1.82
2019-03-03T11:13:03.332Z,1.99
2019-03-03T11:14:03.506Z,1.99
2019-03-03T11:15:03.573Z,2.12
2019-03-03T11:16:03.235Z,1.71
2019-03-03T11:17:03.362Z,2.05
2019-03-03T11:18:03.341Z,2.05
2019-03-03T11:19:02.744Z,2.28
2019-03-03T11:20:03.428Z,2.18
2019-03-03T11:21:03.017Z,2.18
2019-03-03T11:22:03.212Z,2.1
2019-03-03T11:23:03.012Z,1.96
2019-03-03T11:24:03.021Z,2.27
2019-03-03T11:25:02.666Z,2.27
2019-03-03T11:26:03.195Z,2.02
2019-03-03T11:27:03.210Z,2.13
2019-03-03T11:28:03.261Z,1.99
2019-03-03T11:29:03.142Z,1.99
2019-03-03T11:30:03.411Z,1.94
2019-03-03T11:31:03.103Z,1.97
2019-03-03T11:32:03.259Z,2.12
2019-03-03T11:33:03.052Z,2.12
2019-03-03T11:34:02.894Z,1.72
2019-03-03T11:35:03.315Z,1.96
2019-03-03T11:36:02.831Z,1.98
2019-03-03T11:37:03.001Z,1.98
2019-03-03T11:38:02.779Z,2.12
2019-03-03T11:39:03.180Z,2.02
2019-03-03T11:40:03.083Z,2.29
2019-03-03T11:41:02.887Z,2.29
2019-03-03T11:42:03.454Z,2.22
2019-03-03T11:43:03.052Z,2.11
2019-03-03T11:44:03.639Z,2.15
2019-03-03T11:45:03.736Z,2.15
2019-03-03T11:46:04.314Z,2.26
2019-03-03T11:47:02.909Z,2.09
2019-03-03T11:48:04.757Z,1.94
2019-03-03T11:49:03.585Z,1.94
2019-03-03T11:50:03.055Z,1.91
2019-03-03T11:51:03.801Z,2.2
2019-03-03T11:52:03.698Z,2.29
2019-03-03T11:53:03.745Z,2.29
2019-03-03T11:54:02.868Z,2.28
2019-03-03T11:55:02.983Z,2.16
2019-03-03T11:56:03.106Z,2.16
2019-03-03T11:57:04.020Z,2.42
2019-03-03T11:58:06.153Z,2.32
2019-03-03T11:59:02.782Z,2.19
2019-03-03T12:00:03.785Z,2.19
2019-03-03T12:01:02.978Z,2.19
2019-03-03T12:02:03.413Z,1.99
2019-03-03T12:03:03.767Z,1.94
2019-03-03T12:04:03.459Z,2.1
2019-03-03T12:05:03.656Z,2.1
2019-03-03T12:06:03.428Z,2.08
2019-03-03T12:07:03.545Z,1.9
2019-03-03T12:08:03.441Z,1.85
2019-03-03T12:09:03.451Z,1.85
2019-03-03T12:10:03.539Z,1.89
2019-03-03T12:11:03.611Z,1.86
2019-03-03T12:12:03.341Z,1.95
2019-03-03T12:13:03.300Z,1.95
2019-03-03T12:14:03.423Z,2.09
2019-03-03T12:15:03.594Z,2.3
2019-03-03T12:16:03.306Z,2.14
2019-03-03T12:17:03.283Z,2.14
2019-03-03T12:18:03.219Z,1.91
2019-03-03T12:19:02.844Z,2.24
2019-03-03T12:20:03.291Z,2.4
2019-03-03T12:21:03.111Z,2.4
2019-03-03T12:22:03.287Z,1.81
2019-03-03T12:23:03.106Z,2.21
2019-03-03T12:24:03.438Z,2.21
2019-03-03T12:25:03.442Z,2.21
2019-03-03T12:26:02.741Z,2.18
2019-03-03T12:27:03.126Z,1.81
2019-03-03T12:28:03.186Z,1.81
2019-03-03T12:29:03.005Z,2.14
2019-03-03T12:30:03.255Z,2.05
2019-03-03T12:31:03.013Z,2.44
2019-03-03T12:32:02.951Z,2.44
2019-03-03T12:33:02.734Z,2.16
2019-03-03T12:34:03.019Z,1.95
2019-03-03T12:35:03.039Z,2.46
2019-03-03T12:36:05.126Z,3.55
2019-03-03T12:37:03.567Z,3.55
2019-03-03T12:39:03.031Z,2.16
2019-03-03T12:40:03.130Z,2.42
2019-03-03T12:41:03.078Z,2.65
2019-03-03T12:42:03.833Z,2.05
2019-03-03T12:43:02.674Z,1.79
2019-03-03T12:44:02.769Z,2.4
2019-03-03T12:45:02.934Z,1.89
2019-03-03T12:46:03.590Z,1.72
2019-03-03T12:47:03.769Z,3.31
2019-03-03T12:48:02.479Z,2.31
2019-03-03T12:49:03.614Z,2.04
2019-03-03T12:50:03.676Z,1.97
2019-03-03T12:51:03.270Z,2.01
2019-03-03T12:52:03.717Z,1.85
2019-03-03T12:53:03.495Z,1.71
2019-03-03T12:54:03.206Z,2.09
2019-03-03T12:55:03.490Z,2.61
2019-03-03T12:56:03.933Z,2.42
2019-03-03T12:57:03.655Z,2.02
2019-03-03T12:58:03.136Z,2.33
2019-03-03T12:59:03.160Z,1.69
2019-03-03T13:00:03.425Z,2.11
2019-03-03T13:01:02.940Z,1.8
2019-03-03T13:02:03.598Z,2.3
2019-03-03T13:03:03.535Z,2.17
2019-03-03T13:04:03.576Z,2.25
2019-03-03T13:05:03.702Z,2.25
2019-03-03T13:06:03.409Z,2.3
2019-03-03T13:07:03.477Z,2
2019-03-03T13:08:03.358Z,2
2019-03-03T13:09:03.600Z,2.15
2019-03-03T13:10:03.626Z,2.15
2019-03-03T13:11:03.203Z,1.79
2019-03-03T13:12:03.014Z,1.88
2019-03-03T13:13:03.231Z,2.05
2019-03-03T13:14:02.601Z,2.21